Pagrindinis puslapis
METAR-TAF:

METAR-TAF

Oro uostai :

Šeleftėjas, Švedija

platuma: 64-38N, ilguma: 021-05E, Aukštis: 49 m

Dabartinis oras

Ataskaita buvo paskelbta 33 minutes, ne 20:50 UTC
Vėjas 6 kt iš Pietų/Pietvakarių
Temperatūra 16°C
Drėgmė 68%
Slėgis 1012 hPa
Matomumas 10 km arba daugiau

METAR: ESNS 172050Z AUTO 21006KT 9999 FEW120/// SCT170/// 16/10 Q1012

Laikas: 23:23 (21:23 UTC)

Prognozė

Ataskaita buvo paskelbta 6 valandos ir 53 minutes, ne 14:30 UTC
Prognozė galioja nuo 17 metu 15 UTC su 17 metu 18 UTC
Vėjas 8 kt iš Pietų
Matomumas 10 km arba daugiau
nėra debesų žemiau 1500 m ir nėra kamuolinių lietaus debesų

TAF: ESNS 171430Z 1715/1718 17008KT CAVOK

Orai ataskaitas ir orų prognozės (METAR, TAF).

turimą stotys yra geltonos ir raudonos taškus žemėlapyje.

Perkelti pele per norėdami pamatyti stoties vardą.

Tada spustelėkite, norėdami matyti oro stebėjimo ir prognozės.

Norėdami pakeisti žemėlapį: spustelėkite ant žalios mygtukų su juodo kryžiaus žemyn,; žalią mygtuką su brūkšneliu, jei norite nutolinti; arba žalių rodyklių gretimoms žemėlapius.


METAR-TAF: